Time;durP1;ratioP1;P1;durP2;ratioP2;P2;SDS_P1;SDS_P2;PMS_P1;PMS_P2;Temp;Humidity;BMP_temperature;BMP_pressure;BME280_temperature;BME280_humidity;BME280_pressure;Samples;Min_cycle;Max_cycle;Signal;HPM_P1;HPM_P2
2022/07/27 00:00:23;;;;;;;2.60;1.53;;;17.20;57.10;;;;;;4133380;28;20178;-71
2022/07/27 00:02:24;;;;;;;2.87;1.27;;;17.20;57.20;;;;;;4132966;28;20178;-71
2022/07/27 00:04:24;;;;;;;2.90;1.40;;;17.30;56.90;;;;;;4132174;28;20270;-71
2022/07/27 00:06:25;;;;;;;1.70;1.37;;;17.20;57.20;;;;;;4133161;28;20204;-71
2022/07/27 00:08:26;;;;;;;1.73;1.63;;;17.10;58.40;;;;;;4133093;28;20183;-70
2022/07/27 00:10:26;;;;;;;3.73;1.67;;;17.00;58.10;;;;;;4131909;28;20189;-71
2022/07/27 00:12:27;;;;;;;2.07;1.50;;;16.80;58.80;;;;;;4131679;28;20183;-71
2022/07/27 00:14:28;;;;;;;5.33;5.00;;;16.80;59.40;;;;;;4130858;28;20186;-71
2022/07/27 00:16:28;;;;;;;5.43;1.67;;;16.70;59.70;;;;;;4132796;28;20202;-72
2022/07/27 00:18:29;;;;;;;3.77;1.57;;;16.60;59.50;;;;;;4132919;28;20175;-72
2022/07/27 00:20:30;;;;;;;3.30;1.80;;;16.50;59.90;;;;;;4132933;28;20174;-72
2022/07/27 00:22:31;;;;;;;2.70;1.70;;;16.50;60.70;;;;;;4132912;28;20182;-72
2022/07/27 00:24:32;;;;;;;3.63;1.67;;;16.40;61.10;;;;;;4131665;28;20187;-71
2022/07/27 00:26:32;;;;;;;3.47;1.60;;;16.40;61.40;;;;;;4132750;28;20167;-72
2022/07/27 00:28:33;;;;;;;2.47;1.57;;;16.30;61.60;;;;;;4131369;28;20182;-72
2022/07/27 00:30:33;;;;;;;2.23;1.50;;;16.20;62.00;;;;;;4131457;28;20236;-72
2022/07/27 00:32:34;;;;;;;3.03;1.80;;;16.20;61.70;;;;;;4131161;28;20182;-71
2022/07/27 00:34:35;;;;;;;1.77;1.67;;;16.30;61.40;;;;;;4132123;28;20177;-72
2022/07/27 00:36:35;;;;;;;1.90;1.50;;;16.30;61.60;;;;;;4132703;28;20178;-73
2022/07/27 00:38:36;;;;;;;9.50;8.30;;;16.40;60.80;;;;;;4132733;28;20188;-72
2022/07/27 00:40:36;;;;;;;1.63;1.50;;;16.40;61.10;;;;;;4132507;28;20284;-72
2022/07/27 00:42:37;;;;;;;2.10;1.60;;;16.60;60.60;;;;;;4130877;28;20185;-72
2022/07/27 00:44:38;;;;;;;2.00;1.40;;;16.50;61.00;;;;;;4130412;28;20206;-71
2022/07/27 00:46:38;;;;;;;2.50;1.40;;;16.50;60.60;;;;;;4131132;28;20171;-73
2022/07/27 00:48:39;;;;;;;2.50;1.50;;;16.50;60.90;;;;;;4132748;28;20697;-72
2022/07/27 00:50:41;;;;;;;4.00;2.27;;;16.50;60.90;;;;;;4131285;28;20182;-72
2022/07/27 00:52:42;;;;;;;2.00;1.30;;;16.60;60.40;;;;;;4132409;28;20908;-71
2022/07/27 00:54:44;;;;;;;7.30;5.93;;;16.60;60.50;;;;;;4131453;28;20190;-72
2022/07/27 00:56:44;;;;;;;2.10;1.60;;;16.60;60.60;;;;;;4132342;28;20229;-72
2022/07/27 00:58:48;;;;;;;1.70;1.60;;;16.60;60.60;;;;;;4131038;28;20182;-73
2022/07/27 01:00:49;;;;;;;2.47;1.60;;;16.70;60.00;;;;;;4130923;28;20276;-72
2022/07/27 01:02:50;;;;;;;1.60;1.50;;;16.70;60.10;;;;;;4132317;28;20192;-72
2022/07/27 01:04:51;;;;;;;2.60;1.50;;;16.70;60.30;;;;;;4131473;28;20241;-73
2022/07/27 01:06:51;;;;;;;4.33;1.70;;;16.70;59.80;;;;;;4132511;28;20178;-72
2022/07/27 01:09:55;;;;;;;3.27;1.60;;;16.70;60.10;;;;;;4132289;28;20174;-72
2022/07/27 01:11:13;;;;;;;2.70;1.50;;;16.70;60.10;;;;;;4132088;28;20191;-72
2022/07/27 01:13:15;;;;;;;1.67;1.30;;;16.70;60.20;;;;;;4130933;28;20547;-72
2022/07/27 01:15:16;;;;;;;2.90;1.50;;;16.70;60.40;;;;;;4130369;28;20209;-72
2022/07/27 01:17:17;;;;;;;2.03;1.83;;;16.70;60.60;;;;;;4132228;28;20266;-72
2022/07/27 01:19:18;;;;;;;1.77;1.47;;;16.70;60.50;;;;;;4132212;28;20271;-73
2022/07/27 01:21:19;;;;;;;2.60;1.47;;;16.80;59.30;;;;;;4132087;28;20198;-73
2022/07/27 01:23:20;;;;;;;3.17;1.67;;;16.80;59.80;;;;;;4132280;28;20537;-74
2022/07/27 01:25:21;;;;;;;2.07;1.83;;;16.80;59.70;;;;;;4129768;28;20214;-72
2022/07/27 01:27:22;;;;;;;3.20;1.60;;;16.80;59.60;;;;;;4131799;28;20204;-72
2022/07/27 01:29:23;;;;;;;2.40;1.50;;;16.70;60.10;;;;;;4131806;28;20249;-73
2022/07/27 01:31:23;;;;;;;2.43;1.43;;;16.70;60.70;;;;;;4131464;28;20186;-72
2022/07/27 01:33:26;;;;;;;3.40;1.70;;;16.70;60.70;;;;;;4131367;28;20175;-72
2022/07/27 01:35:28;;;;;;;2.53;1.33;;;16.70;60.00;;;;;;4130692;28;20210;-72
2022/07/27 01:37:29;;;;;;;1.80;1.40;;;16.70;60.20;;;;;;4131010;28;20182;-72
2022/07/27 01:39:31;;;;;;;1.70;1.60;;;16.60;60.40;;;;;;4131189;28;20537;-72
2022/07/27 01:41:31;;;;;;;2.00;1.50;;;16.60;61.00;;;;;;4131063;28;20213;-72
2022/07/27 01:43:32;;;;;;;1.80;1.70;;;16.60;60.70;;;;;;4130922;28;20189;-72
2022/07/27 01:45:33;;;;;;;2.97;1.70;;;16.50;61.10;;;;;;4130414;28;20252;-73
2022/07/27 01:47:33;;;;;;;2.33;1.63;;;16.50;61.30;;;;;;4130966;28;20186;-72
2022/07/27 01:49:34;;;;;;;3.67;3.47;;;16.40;61.30;;;;;;4131134;28;20257;-72
2022/07/27 01:51:34;;;;;;;1.93;1.83;;;16.50;61.60;;;;;;4130849;28;20178;-72
2022/07/27 01:53:35;;;;;;;1.93;1.40;;;16.50;61.70;;;;;;4130805;28;20266;-73
2022/07/27 01:55:36;;;;;;;1.77;1.43;;;16.50;62.00;;;;;;4129001;28;20301;-72
2022/07/27 01:57:37;;;;;;;3.83;3.60;;;16.50;62.00;;;;;;4130607;28;20183;-72
2022/07/27 01:59:38;;;;;;;1.90;1.50;;;16.40;61.80;;;;;;4129608;28;20182;-73
2022/07/27 02:01:38;;;;;;;2.83;1.60;;;16.50;62.10;;;;;;4130691;28;20551;-73
2022/07/27 02:03:39;;;;;;;2.77;1.63;;;16.40;61.70;;;;;;4131086;28;20803;-73
2022/07/27 02:05:40;;;;;;;2.33;1.40;;;16.50;62.00;;;;;;4130221;28;20214;-73
2022/07/27 02:07:41;;;;;;;1.90;1.70;;;16.40;61.80;;;;;;4123446;28;20960;-73
2022/07/27 02:09:44;;;;;;;1.97;1.50;;;16.20;62.50;;;;;;4130223;28;20190;-73
2022/07/27 02:14:04;;;;;;;3.37;1.63;;;15.80;64.10;;;;;;4129775;28;20266;-73
2022/07/27 02:16:05;;;;;;;1.90;1.80;;;15.70;64.80;;;;;;4129194;28;20205;-74
2022/07/27 02:18:05;;;;;;;2.27;1.57;;;15.60;64.80;;;;;;4130536;28;20183;-73
2022/07/27 02:20:08;;;;;;;2.87;1.80;;;15.60;65.30;;;;;;4130341;28;20190;-73
2022/07/27 02:22:08;;;;;;;2.10;1.63;;;15.70;65.50;;;;;;4130320;28;20194;-73
2022/07/27 02:24:09;;;;;;;2.10;1.60;;;15.70;65.40;;;;;;4127367;28;20665;-73
2022/07/27 02:26:10;;;;;;;2.07;1.60;;;15.70;65.20;;;;;;4129791;28;20226;-74
2022/07/27 02:28:10;;;;;;;1.73;1.63;;;15.60;65.20;;;;;;4130273;28;20179;-74
2022/07/27 02:30:13;;;;;;;3.00;1.70;;;15.60;65.00;;;;;;4128963;28;20237;-73
2022/07/27 02:32:13;;;;;;;2.23;2.00;;;15.70;65.10;;;;;;4130461;28;20189;-73
2022/07/27 02:34:14;;;;;;;3.63;1.83;;;15.60;65.20;;;;;;4129595;28;20183;-74
2022/07/27 02:36:14;;;;;;;5.90;2.10;;;15.70;65.30;;;;;;4130179;28;20197;-74
2022/07/27 02:38:15;;;;;;;2.10;1.90;;;15.70;65.30;;;;;;4130324;28;20687;-74
2022/07/27 02:40:16;;;;;;;1.87;1.77;;;15.70;65.80;;;;;;4130481;28;20190;-73
2022/07/27 02:42:17;;;;;;;2.20;1.70;;;15.60;66.00;;;;;;4130207;28;20182;-73
2022/07/27 02:44:19;;;;;;;2.70;1.70;;;15.60;67.50;;;;;;4129899;28;20223;-73
2022/07/27 02:46:19;;;;;;;2.27;1.90;;;15.60;66.00;;;;;;4128675;28;20224;-73
2022/07/27 02:48:20;;;;;;;4.27;2.00;;;15.50;66.50;;;;;;4128849;28;20186;-73
2022/07/27 02:50:21;;;;;;;1.93;1.77;;;15.50;66.80;;;;;;4128997;28;20250;-75
2022/07/27 02:52:21;;;;;;;3.63;2.37;;;15.50;66.90;;;;;;4129867;28;20178;-73
2022/07/27 02:54:24;;;;;;;2.17;1.83;;;15.50;66.60;;;;;;4129319;28;20206;-73
2022/07/27 02:56:24;;;;;;;3.50;1.97;;;15.50;66.60;;;;;;4129953;28;20194;-74
2022/07/27 02:58:25;;;;;;;1.83;1.60;;;15.60;66.60;;;;;;4128273;28;20189;-74
2022/07/27 03:00:25;;;;;;;2.70;2.00;;;15.60;66.30;;;;;;4129899;28;20248;-74
2022/07/27 03:02:26;;;;;;;3.73;2.47;;;15.50;66.30;;;;;;4130004;28;20554;-74
2022/07/27 03:04:27;;;;;;;3.13;2.50;;;15.50;66.30;;;;;;4127932;28;20252;-73
2022/07/27 03:06:28;;;;;;;2.27;2.07;;;15.50;66.40;;;;;;4130294;28;20206;-73
2022/07/27 03:08:28;;;;;;;3.43;2.53;;;15.60;66.30;;;;;;4129870;28;20542;-74
2022/07/27 03:10:29;;;;;;;2.30;2.03;;;15.70;66.40;;;;;;4132857;28;20308;-74
2022/07/27 03:12:30;;;;;;;1.77;1.63;;;15.60;66.70;;;;;;4133517;28;20553;-74
2022/07/27 03:14:30;;;;;;;2.70;1.73;;;15.60;66.60;;;;;;4132692;28;20177;-75
2022/07/27 03:16:31;;;;;;;3.63;1.80;;;15.40;67.50;;;;;;4133244;28;20206;-74
2022/07/27 03:18:31;;;;;;;3.20;1.97;;;15.30;68.10;;;;;;4133133;28;20232;-74
2022/07/27 03:20:32;;;;;;;1.87;1.77;;;15.30;68.60;;;;;;4133156;28;20197;-74
2022/07/27 03:22:33;;;;;;;2.27;2.10;;;15.20;68.50;;;;;;4131652;28;20261;-74
2022/07/27 03:24:33;;;;;;;5.70;1.90;;;15.20;68.50;;;;;;4130902;28;20736;-74
2022/07/27 03:26:34;;;;;;;4.50;1.80;;;15.20;68.10;;;;;;4133185;28;20168;-74
2022/07/27 03:28:34;;;;;;;1.77;1.50;;;15.30;68.00;;;;;;4132992;28;20560;-74
2022/07/27 03:30:35;;;;;;;5.43;2.00;;;15.30;67.90;;;;;;4132880;28;20534;-74
2022/07/27 03:32:35;;;;;;;4.43;1.77;;;15.30;68.00;;;;;;4132980;28;20670;-74
2022/07/27 03:34:36;;;;;;;3.80;2.10;;;15.20;68.30;;;;;;4130827;28;20581;-74
2022/07/27 03:36:36;;;;;;;3.10;2.23;;;15.20;68.70;;;;;;4132854;28;20237;-74
2022/07/27 03:38:37;;;;;;;2.40;2.20;;;15.00;68.70;;;;;;4132504;28;20536;-74
2022/07/27 03:40:39;;;;;;;2.80;1.70;;;14.90;69.30;;;;;;4134215;28;20189;-75
2022/07/27 03:42:39;;;;;;;1.83;1.73;;;14.80;69.50;;;;;;4134281;28;20232;-74
2022/07/27 03:44:40;;;;;;;2.77;2.17;;;14.80;70.10;;;;;;4133515;28;20175;-74
2022/07/27 03:46:40;;;;;;;3.37;1.83;;;14.80;70.10;;;;;;4134137;28;20185;-74
2022/07/27 03:48:41;;;;;;;6.53;1.80;;;14.70;70.50;;;;;;4134026;28;20634;-75
2022/07/27 03:50:41;;;;;;;2.73;2.27;;;14.60;70.70;;;;;;4134157;28;20171;-75
2022/07/27 03:52:42;;;;;;;1.73;1.63;;;14.60;72.30;;;;;;4134276;28;20190;-75
2022/07/27 03:54:43;;;;;;;1.50;1.40;;;14.50;71.20;;;;;;4132021;28;20221;-74
2022/07/27 03:56:44;;;;;;;2.33;1.77;;;14.50;71.60;;;;;;4132989;28;20764;-75
2022/07/27 03:58:45;;;;;;;2.10;1.80;;;14.30;72.00;;;;;;4134459;28;20170;-74
2022/07/27 04:00:45;;;;;;;2.17;1.90;;;14.30;72.90;;;;;;4133027;28;20183;-76
2022/07/27 04:02:46;;;;;;;3.60;2.03;;;14.20;73.30;;;;;;4134222;28;20189;-75
2022/07/27 04:04:46;;;;;;;2.20;2.00;;;14.10;73.60;;;;;;4133541;28;20198;-75
2022/07/27 04:06:47;;;;;;;2.00;1.63;;;14.10;74.00;;;;;;4134445;28;20242;-75
2022/07/27 04:08:48;;;;;;;2.80;1.70;;;14.10;74.40;;;;;;4134119;28;20174;-75
2022/07/27 04:10:48;;;;;;;3.43;1.60;;;14.10;74.60;;;;;;4134595;28;20758;-75
2022/07/27 04:12:49;;;;;;;3.17;2.03;;;14.00;74.60;;;;;;4132999;28;20833;-75
2022/07/27 04:14:49;;;;;;;1.80;1.60;;;14.00;74.80;;;;;;4133254;28;20182;-75
2022/07/27 04:16:50;;;;;;;4.83;1.63;;;13.90;75.00;;;;;;4132615;28;20178;-76
2022/07/27 04:18:52;;;;;;;2.60;1.50;;;13.90;75.40;;;;;;4134758;28;20197;-75
2022/07/27 04:20:52;;;;;;;3.23;1.70;;;13.80;75.90;;;;;;4132648;28;20193;-75
2022/07/27 04:22:53;;;;;;;4.60;1.80;;;13.80;76.30;;;;;;4126007;28;20189;-75
2022/07/27 04:24:54;;;;;;;4.47;1.70;;;13.70;76.60;;;;;;4133955;28;20272;-75
2022/07/27 04:26:55;;;;;;;2.60;1.90;;;13.60;77.30;;;;;;4139657;28;20171;-75
2022/07/27 04:28:56;;;;;;;2.07;1.60;;;13.60;77.30;;;;;;4148271;28;20170;-75
2022/07/27 04:30:56;;;;;;;3.57;2.00;;;13.60;77.70;;;;;;4148041;28;20285;-76
2022/07/27 04:32:57;;;;;;;2.83;1.80;;;13.70;77.50;;;;;;4148050;28;20197;-76
2022/07/27 04:34:57;;;;;;;2.37;1.90;;;13.70;77.50;;;;;;4146170;28;20243;-76
2022/07/27 04:36:58;;;;;;;2.30;2.07;;;13.60;77.80;;;;;;4148153;28;20208;-76
2022/07/27 04:38:58;;;;;;;1.90;1.70;;;13.60;78.00;;;;;;4148036;28;20558;-76
2022/07/27 04:40:59;;;;;;;2.40;1.73;;;13.60;78.00;;;;;;4148044;28;21031;-77
2022/07/27 04:43:02;;;;;;;2.07;1.87;;;13.60;78.30;;;;;;4149501;28;20185;-77
2022/07/27 04:45:03;;;;;;;3.63;2.03;;;13.70;78.40;;;;;;4147378;28;20228;-77
2022/07/27 04:47:04;;;;;;;2.23;1.70;;;13.60;78.70;;;;;;4145435;28;20208;-77
2022/07/27 04:49:05;;;;;;;2.47;1.70;;;13.70;78.80;;;;;;4129203;28;20288;-77
2022/07/27 04:51:05;;;;;;;2.63;2.07;;;13.70;78.50;;;;;;4131942;28;20672;-77
2022/07/27 04:53:07;;;;;;;2.27;1.90;;;13.70;78.80;;;;;;4130149;28;20190;-77
2022/07/27 04:55:08;;;;;;;3.77;1.73;;;13.70;79.40;;;;;;4131469;28;20579;-77
2022/07/27 04:57:08;;;;;;;1.93;1.83;;;13.70;79.50;;;;;;4132165;28;20197;-78
2022/07/27 04:59:10;;;;;;;3.97;1.70;;;13.70;79.50;;;;;;4130170;28;20190;-78
2022/07/27 05:01:11;;;;;;;5.27;1.80;;;13.90;80.30;;;;;;4131358;28;20206;-78
2022/07/27 05:03:12;;;;;;;2.30;1.73;;;14.10;79.40;;;;;;4131536;28;20185;-78
2022/07/27 05:05:12;;;;;;;2.27;2.07;;;14.30;78.30;;;;;;4130867;28;20672;-78
2022/07/27 05:07:13;;;;;;;2.10;1.80;;;14.50;77.20;;;;;;4131479;28;20194;-78
2022/07/27 05:09:14;;;;;;;2.77;2.20;;;14.60;76.40;;;;;;4131495;28;20182;-78
2022/07/27 05:11:14;;;;;;;4.43;2.00;;;14.80;75.80;;;;;;4130111;28;20193;-77
2022/07/27 05:13:15;;;;;;;2.17;1.80;;;15.00;74.50;;;;;;4130140;28;20179;-77
2022/07/27 05:15:16;;;;;;;3.80;3.07;;;15.10;72.90;;;;;;4130698;28;20241;-77
2022/07/27 05:17:17;;;;;;;2.87;2.03;;;15.30;71.70;;;;;;4132480;28;20186;-77
2022/07/27 05:19:17;;;;;;;2.33;2.10;;;15.40;71.20;;;;;;4131317;28;20189;-77
2022/07/27 05:21:18;;;;;;;3.87;2.17;;;15.60;71.30;;;;;;4131307;28;20186;-78
2022/07/27 05:23:18;;;;;;;2.83;1.90;;;15.70;70.10;;;;;;4131510;28;20595;-76
2022/07/27 05:25:20;;;;;;;3.93;1.90;;;15.80;68.70;;;;;;4129972;28;20257;-78
2022/07/27 05:27:20;;;;;;;2.23;1.80;;;15.80;68.10;;;;;;4130269;28;20894;-78
2022/07/27 05:29:21;;;;;;;2.40;1.83;;;15.70;68.90;;;;;;4132085;28;20179;-77
2022/07/27 05:31:21;;;;;;;3.33;2.00;;;15.70;69.10;;;;;;4131784;28;20185;-78
2022/07/27 05:33:22;;;;;;;4.13;2.23;;;15.90;67.80;;;;;;4131259;28;20273;-76
2022/07/27 05:35:23;;;;;;;2.63;2.40;;;16.00;67.00;;;;;;4130984;28;20215;-77
2022/07/27 05:37:23;;;;;;;1.87;1.70;;;16.00;67.10;;;;;;4129988;28;20658;-78
2022/07/27 05:39:24;;;;;;;2.10;1.70;;;16.20;66.20;;;;;;4131400;28;20189;-78
2022/07/27 05:41:26;;;;;;;3.20;3.00;;;16.20;66.60;;;;;;4130166;28;20217;-79
2022/07/27 05:43:27;;;;;;;2.33;2.07;;;16.20;67.00;;;;;;4131142;28;20193;-80
2022/07/27 05:45:27;;;;;;;5.00;3.67;;;16.30;66.20;;;;;;4130363;28;20237;-78
2022/07/27 05:47:28;;;;;;;2.23;2.03;;;16.40;66.10;;;;;;4131089;28;20646;-77
2022/07/27 05:49:28;;;;;;;5.70;2.50;;;16.40;66.20;;;;;;4129966;28;20191;-78
2022/07/27 05:51:30;;;;;;;2.40;1.93;;;16.60;65.80;;;;;;4131168;28;20182;-78
2022/07/27 05:53:31;;;;;;;2.00;1.80;;;16.60;64.60;;;;;;4131098;28;20182;-78
2022/07/27 05:55:32;;;;;;;3.80;2.10;;;16.80;64.20;;;;;;4129702;28;20229;-77
2022/07/27 05:57:32;;;;;;;3.20;2.17;;;16.80;63.80;;;;;;4131378;28;20214;-78
2022/07/27 05:59:35;;;;;;;2.10;1.90;;;16.90;63.60;;;;;;4130989;28;20616;-77
2022/07/27 06:01:36;;;;;;;3.33;2.63;;;16.80;64.50;;;;;;4131219;28;20193;-78
2022/07/27 06:03:37;;;;;;;2.13;1.90;;;16.80;64.60;;;;;;4129701;28;20190;-79
2022/07/27 06:05:37;;;;;;;2.40;2.20;;;16.90;63.20;;;;;;4130576;28;20872;-78
2022/07/27 06:09:57;;;;;;;2.43;2.23;;;17.40;61.80;;;;;;4130848;28;20652;-77
2022/07/27 06:11:57;;;;;;;3.87;3.47;;;17.50;61.00;;;;;;4130866;28;20191;-77
2022/07/27 06:13:58;;;;;;;4.53;3.23;;;17.30;62.30;;;;;;4129929;28;20186;-77
2022/07/27 06:15:58;;;;;;;4.07;2.00;;;17.40;62.30;;;;;;4130794;28;20664;-75
2022/07/27 06:18:00;;;;;;;3.00;2.67;;;17.40;62.10;;;;;;4130700;28;20186;-78
2022/07/27 06:20:01;;;;;;;4.17;3.90;;;17.40;62.70;;;;;;4130467;28;20213;-78
2022/07/27 06:22:02;;;;;;;2.30;2.10;;;17.20;63.70;;;;;;4129257;28;20253;-78
2022/07/27 06:24:03;;;;;;;4.90;4.50;;;17.10;65.00;;;;;;4129867;28;20571;-77
2022/07/27 06:26:04;;;;;;;3.00;2.80;;;17.10;65.80;;;;;;4129029;28;20334;-77
2022/07/27 06:28:05;;;;;;;3.00;2.17;;;17.10;66.60;;;;;;4130762;28;20204;-78
2022/07/27 06:30:06;;;;;;;3.00;2.20;;;17.00;65.80;;;;;;4130503;28;20633;-77
2022/07/27 06:32:07;;;;;;;3.73;2.47;;;17.20;65.20;;;;;;4130541;28;20194;-81
2022/07/27 06:34:07;;;;;;;3.20;2.67;;;17.10;65.20;;;;;;4128621;28;20200;-77
2022/07/27 06:36:08;;;;;;;5.33;2.77;;;17.20;64.50;;;;;;4130892;28;20668;-78
2022/07/27 06:38:08;;;;;;;4.33;2.87;;;17.10;64.20;;;;;;4130634;28;20846;-78
2022/07/27 06:40:13;;;;;;;3.43;3.13;;;17.20;64.40;;;;;;4129237;28;20662;-77
2022/07/27 06:42:14;;;;;;;4.30;2.67;;;17.30;62.90;;;;;;4130554;28;20186;-77
2022/07/27 06:44:15;;;;;;;4.20;3.60;;;17.40;62.00;;;;;;4127312;28;20635;-78
2022/07/27 06:46:15;;;;;;;2.90;2.67;;;17.30;64.40;;;;;;4130796;28;20265;-77
2022/07/27 06:48:17;;;;;;;2.90;2.50;;;17.30;63.20;;;;;;4129323;28;20226;-78
2022/07/27 06:50:19;;;;;;;3.20;2.90;;;17.20;64.00;;;;;;4130913;28;20558;-79
2022/07/27 06:52:19;;;;;;;13.07;11.80;;;17.30;63.50;;;;;;4132763;28;20205;-79
2022/07/27 06:54:21;;;;;;;10.27;9.47;;;17.50;62.00;;;;;;4132013;28;20175;-79
2022/07/27 06:56:21;;;;;;;4.80;3.93;;;17.70;62.50;;;;;;4129264;28;20199;-77
2022/07/27 06:58:22;;;;;;;5.80;5.40;;;17.80;61.30;;;;;;4129432;28;20264;-78
2022/07/27 07:00:22;;;;;;;9.57;8.87;;;17.80;61.30;;;;;;4130636;28;20186;-78
2022/07/27 07:02:23;;;;;;;3.47;3.20;;;17.90;60.60;;;;;;4130639;28;20230;-77
2022/07/27 07:04:23;;;;;;;10.87;9.97;;;18.00;60.30;;;;;;4129907;28;20649;-77
2022/07/27 07:06:25;;;;;;;3.30;3.00;;;18.30;60.20;;;;;;4130751;28;20210;-76
2022/07/27 07:08:25;;;;;;;9.23;6.57;;;18.60;58.70;;;;;;4131170;28;20671;-77
2022/07/27 07:10:27;;;;;;;7.27;6.77;;;18.80;57.90;;;;;;4130623;28;20209;-77
2022/07/27 07:12:28;;;;;;;3.47;3.17;;;19.10;56.40;;;;;;4131029;28;20529;-77
2022/07/27 07:14:28;;;;;;;4.23;3.93;;;19.20;56.20;;;;;;4129828;28;20190;-78
2022/07/27 07:16:29;;;;;;;6.03;5.53;;;19.10;56.70;;;;;;4129640;28;20210;-77
2022/07/27 07:18:29;;;;;;;4.27;3.57;;;19.20;56.30;;;;;;4129763;28;20236;-78
2022/07/27 07:20:30;;;;;;;3.90;3.47;;;19.60;54.70;;;;;;4129774;28;20244;-76
2022/07/27 07:22:33;;;;;;;3.87;3.57;;;19.80;54.20;;;;;;4128337;28;20277;-77
2022/07/27 07:24:33;;;;;;;5.37;4.93;;;20.10;53.80;;;;;;4127627;28;20235;-77
2022/07/27 07:26:35;;;;;;;4.73;3.20;;;19.80;53.80;;;;;;4130583;28;20175;-77
2022/07/27 07:28:35;;;;;;;4.17;3.83;;;19.70;54.90;;;;;;4112393;28;20187;-78
2022/07/27 07:30:36;;;;;;;4.03;3.67;;;19.90;53.40;;;;;;4128429;28;20194;-77
2022/07/27 07:32:36;;;;;;;4.40;3.10;;;19.90;53.80;;;;;;4128682;28;20182;-77
2022/07/27 07:34:37;;;;;;;9.30;5.20;;;19.80;53.80;;;;;;4129104;28;20213;-77
2022/07/27 07:36:38;;;;;;;6.27;4.87;;;19.70;53.80;;;;;;4128692;28;20643;-76
2022/07/27 07:38:38;;;;;;;22.67;19.73;;;19.50;54.30;;;;;;4129672;28;20179;-77
2022/07/27 07:40:39;;;;;;;12.27;11.53;;;19.50;54.70;;;;;;4129833;28;20608;-76
2022/07/27 07:42:55;;;;;;;5.77;5.17;;;19.70;53.50;;;;;;4132395;28;20182;-77
2022/07/27 07:44:55;;;;;;;17.10;11.80;;;19.80;53.60;;;;;;4130602;28;20261;-75
2022/07/27 07:46:56;;;;;;;69.73;29.30;;;19.90;52.90;;;;;;4132629;28;20182;-76
2022/07/27 07:48:56;;;;;;;8.07;7.57;;;20.00;52.80;;;;;;4132453;28;20187;-76
2022/07/27 07:50:57;;;;;;;84.40;57.87;;;20.00;52.90;;;;;;4133239;28;20185;-75
2022/07/27 07:52:58;;;;;;;43.40;30.63;;;19.80;53.10;;;;;;4131151;28;20553;-75
2022/07/27 07:54:58;;;;;;;4.63;4.33;;;19.80;52.50;;;;;;4129797;28;20774;-76
2022/07/27 07:56:59;;;;;;;9.43;8.13;;;20.00;54.40;;;;;;4134465;28;20190;-75
2022/07/27 07:59:03;;;;;;;9.37;8.60;;;20.40;51.60;;;;;;4134358;28;20197;-76
2022/07/27 08:01:04;;;;;;;3.40;2.77;;;20.40;51.00;;;;;;4134241;28;20198;-75
2022/07/27 08:03:04;;;;;;;7.50;6.57;;;20.40;50.10;;;;;;4134066;28;20295;-75
2022/07/27 08:05:06;;;;;;;4.17;3.70;;;20.30;50.20;;;;;;4133169;28;20198;-75
2022/07/27 08:07:06;;;;;;;3.67;2.80;;;20.20;49.70;;;;;;4134072;28;20190;-75
2022/07/27 08:09:07;;;;;;;3.73;3.07;;;20.30;49.90;;;;;;4133812;28;20217;-75
2022/07/27 08:11:07;;;;;;;6.23;5.70;;;20.30;50.60;;;;;;4135178;28;20189;-76
2022/07/27 08:13:08;;;;;;;5.17;4.70;;;20.10;51.90;;;;;;4133755;28;20194;-75
2022/07/27 08:15:10;;;;;;;5.40;3.53;;;20.10;51.80;;;;;;4134491;28;20281;-75
2022/07/27 08:17:11;;;;;;;3.87;3.57;;;20.40;49.70;;;;;;4133766;28;20198;-75
2022/07/27 08:19:11;;;;;;;11.00;10.10;;;20.30;50.50;;;;;;4135112;28;20605;-75
2022/07/27 08:21:12;;;;;;;4.77;2.37;;;20.60;50.00;;;;;;4135055;28;20181;-75
2022/07/27 08:23:12;;;;;;;4.50;2.50;;;20.80;47.80;;;;;;4133900;28;20584;-75
2022/07/27 08:25:13;;;;;;;23.03;21.07;;;21.10;46.80;;;;;;4132792;28;20249;-75
2022/07/27 08:27:14;;;;;;;4.50;2.33;;;21.00;47.50;;;;;;4134997;28;20194;-75
2022/07/27 08:29:14;;;;;;;3.30;3.00;;;21.00;47.00;;;;;;4133706;28;20188;-75
2022/07/27 08:31:15;;;;;;;2.90;2.70;;;21.10;46.30;;;;;;4134828;28;20237;-75
2022/07/27 08:33:16;;;;;;;3.57;2.40;;;21.20;47.50;;;;;;4134539;28;20180;-75
2022/07/27 08:35:18;;;;;;;2.57;2.37;;;21.50;44.80;;;;;;4133983;28;20206;-74
2022/07/27 08:37:19;;;;;;;13.27;12.37;;;21.60;43.60;;;;;;4134866;28;20191;-75
2022/07/27 08:39:19;;;;;;;8.30;7.63;;;21.70;44.20;;;;;;4134046;28;20688;-74
2022/07/27 08:41:22;;;;;;;4.33;4.03;;;21.90;44.10;;;;;;4134288;28;20269;-74
2022/07/27 08:43:24;;;;;;;3.83;3.50;;;22.10;43.10;;;;;;4134543;28;20194;-74
2022/07/27 08:45:24;;;;;;;17.37;16.10;;;21.50;44.70;;;;;;4134076;28;20253;-74
2022/07/27 08:47:26;;;;;;;3.87;3.00;;;21.20;45.60;;;;;;4133293;28;20846;-73
2022/07/27 08:49:28;;;;;;;3.87;3.57;;;21.40;47.00;;;;;;4134295;28;20186;-73
2022/07/27 08:51:28;;;;;;;2.60;2.40;;;21.70;45.70;;;;;;4134267;28;20183;-75
2022/07/27 08:53:33;;;;;;;4.87;2.20;;;22.20;43.50;;;;;;4133437;28;20187;-73
2022/07/27 08:55:42;;;;;;;7.77;6.37;;;22.40;42.00;;;;;;4132569;28;20304;-73
2022/07/27 08:57:42;;;;;;;27.40;24.67;;;22.40;42.70;;;;;;4132714;28;20906;-74
2022/07/27 08:59:43;;;;;;;3.53;2.70;;;22.30;41.80;;;;;;4133198;28;20210;-74
2022/07/27 09:01:44;;;;;;;25.57;22.40;;;22.00;43.20;;;;;;4133428;28;20666;-74
2022/07/27 09:03:44;;;;;;;12.57;11.50;;;22.10;43.00;;;;;;4133798;28;20689;-74
2022/07/27 09:05:47;;;;;;;3.87;3.57;;;21.90;43.60;;;;;;4133400;28;20257;-74
2022/07/27 09:07:48;;;;;;;4.87;2.67;;;22.00;43.50;;;;;;4132593;28;20182;-73
2022/07/27 09:09:49;;;;;;;2.70;2.50;;;21.90;43.90;;;;;;4133597;28;20210;-73
2022/07/27 09:12:07;;;;;;;3.63;2.20;;;21.50;44.00;;;;;;4133610;28;20182;-73
2022/07/27 09:14:11;;;;;;;3.87;2.77;;;21.50;43.30;;;;;;4132552;28;20194;-73
2022/07/27 09:16:11;;;;;;;4.07;3.47;;;21.60;43.10;;;;;;4132870;28;20202;-73
2022/07/27 09:18:23;;;;;;;2.63;1.90;;;21.90;42.10;;;;;;4132856;28;20205;-73
2022/07/27 09:20:24;;;;;;;7.13;5.97;;;21.80;41.90;;;;;;4131689;28;20190;-72
2022/07/27 09:22:37;;;;;;;4.07;2.17;;;21.60;42.20;;;;;;4133341;28;20205;-73
2022/07/27 09:25:00;;;;;;;3.73;2.73;;;21.60;42.50;;;;;;4132048;28;20178;-73
2022/07/27 09:27:02;;;;;;;3.03;2.73;;;21.80;43.10;;;;;;4132860;28;20185;-73
2022/07/27 09:29:05;;;;;;;5.50;5.03;;;21.90;42.30;;;;;;4132944;28;20182;-73
2022/07/27 09:31:08;;;;;;;3.53;2.97;;;21.80;42.10;;;;;;4132549;28;20244;-73
2022/07/27 09:33:09;;;;;;;5.57;5.10;;;21.20;42.90;;;;;;4132576;28;20193;-73
2022/07/27 09:35:17;;;;;;;17.73;16.67;;;21.30;43.10;;;;;;4131970;28;20206;-73
2022/07/27 09:37:25;;;;;;;32.00;29.93;;;21.40;42.70;;;;;;4131455;28;20174;-73
2022/07/27 09:39:26;;;;;;;2.10;1.80;;;21.60;42.30;;;;;;4132629;28;20181;-72
2022/07/27 09:41:39;;;;;;;2.43;2.20;;;21.90;42.70;;;;;;4131144;28;20189;-73
2022/07/27 09:43:54;;;;;;;3.27;2.10;;;22.00;41.80;;;;;;4132590;28;20166;-72
2022/07/27 09:46:03;;;;;;;36.17;33.90;;;21.80;41.60;;;;;;4132190;28;20289;-76
2022/07/27 09:48:11;;;;;;;10.33;9.67;;;21.90;41.10;;;;;;4132122;28;20206;-72
2022/07/27 09:50:17;;;;;;;2.50;1.70;;;22.00;40.10;;;;;;4132164;28;20816;-72
2022/07/27 09:52:27;;;;;;;3.37;1.80;;;22.00;40.20;;;;;;4132347;28;20159;-72
2022/07/27 09:54:41;;;;;;;2.20;2.07;;;21.80;40.50;;;;;;4131435;28;20178;-72
2022/07/27 09:56:42;;;;;;;2.47;2.00;;;21.70;43.00;;;;;;4132136;28;20680;-72
2022/07/27 09:58:48;;;;;;;2.40;1.90;;;22.10;39.70;;;;;;4130688;28;20720;-72
2022/07/27 10:00:56;;;;;;;2.63;2.40;;;22.50;39.60;;;;;;4131989;28;20205;-72
2022/07/27 10:02:58;;;;;;;11.80;11.00;;;22.70;38.80;;;;;;4132048;28;20181;-73
2022/07/27 10:04:58;;;;;;;3.00;2.70;;;22.00;40.50;;;;;;4131158;28;20292;-72
2022/07/27 10:07:00;;;;;;;8.37;7.77;;;22.40;39.70;;;;;;4131693;28;20668;-72
2022/07/27 10:09:01;;;;;;;17.60;16.53;;;22.70;39.60;;;;;;4131848;28;20185;-71
2022/07/27 10:11:02;;;;;;;6.03;1.80;;;23.70;38.50;;;;;;4131265;28;20187;-72
2022/07/27 10:13:04;;;;;;;4.83;4.47;;;23.50;37.20;;;;;;4130340;28;20178;-72
2022/07/27 10:15:05;;;;;;;3.97;3.60;;;23.10;38.60;;;;;;4129821;28;20256;-71
2022/07/27 10:17:06;;;;;;;3.67;1.90;;;23.80;35.90;;;;;;4130350;28;20178;-71
2022/07/27 10:19:26;;;;;;;8.30;7.73;;;24.00;35.90;;;;;;4130116;28;20189;-71
2022/07/27 10:21:28;;;;;;;2.33;2.20;;;24.60;34.80;;;;;;4130205;28;20190;-71
2022/07/27 10:23:29;;;;;;;2.63;1.83;;;25.20;34.40;;;;;;4130229;28;20811;-71
2022/07/27 10:25:30;;;;;;;3.70;3.43;;;25.50;33.30;;;;;;4128476;28;20218;-71
2022/07/27 10:27:30;;;;;;;2.13;1.93;;;25.80;32.50;;;;;;4130354;28;20258;-71
2022/07/27 10:29:31;;;;;;;3.87;3.67;;;25.40;33.00;;;;;;4130230;28;20202;-71
2022/07/27 10:31:37;;;;;;;10.87;10.07;;;24.80;33.40;;;;;;4130372;28;20186;-72
2022/07/27 10:33:42;;;;;;;9.33;8.83;;;24.90;33.50;;;;;;4130163;28;20202;-71
2022/07/27 10:35:42;;;;;;;42.67;40.13;;;24.80;34.00;;;;;;4129689;28;20202;-71